createdAt,value
2022-09-22T00:00:02.312Z,26.80
2022-09-22T00:05:42.643Z,33.03
2022-09-22T00:11:29.047Z,33.80
2022-09-22T00:16:59.465Z,32.30
2022-09-22T00:22:18.031Z,28.83
2022-09-22T00:27:59.833Z,29.50
2022-09-22T00:33:19.239Z,29.97
2022-09-22T00:44:25.273Z,24.70
2022-09-22T00:49:51.080Z,24.03
2022-09-22T00:54:58.546Z,29.47
2022-09-22T01:00:04.400Z,27.87
2022-09-22T01:05:23.433Z,28.80
2022-09-22T01:10:49.383Z,28.37
2022-09-22T01:16:23.404Z,28.97
2022-09-22T01:22:18.304Z,31.37
2022-09-22T01:27:43.539Z,27.33
2022-09-22T01:33:23.541Z,28.13
2022-09-22T01:39:07.540Z,27.53
2022-09-22T01:44:25.954Z,31.70
2022-09-22T01:49:40.922Z,29.77
2022-09-22T01:54:51.623Z,26.57
2022-09-22T02:00:01.206Z,27.00
2022-09-22T02:05:42.362Z,25.50
2022-09-22T02:10:56.655Z,23.07
2022-09-22T02:16:28.107Z,23.40
2022-09-22T02:21:38.038Z,28.63
2022-09-22T02:27:25.564Z,28.33
2022-09-22T02:32:53.550Z,22.53
2022-09-22T02:38:30.402Z,22.40
2022-09-22T02:44:02.260Z,22.13
2022-09-22T02:49:19.288Z,18.97
2022-09-22T02:54:29.881Z,22.23
2022-09-22T02:59:34.121Z,21.10
2022-09-22T03:05:00.191Z,20.17
2022-09-22T03:10:03.053Z,21.33
2022-09-22T03:15:06.331Z,21.13
2022-09-22T03:20:11.911Z,24.20
2022-09-22T03:25:14.710Z,21.53
2022-09-22T03:30:17.572Z,24.37
2022-09-22T03:35:20.492Z,24.83
2022-09-22T03:40:23.433Z,24.07
2022-09-22T03:45:26.268Z,19.87
2022-09-22T03:50:29.243Z,23.13
2022-09-22T03:55:31.888Z,21.87
2022-09-22T04:00:34.669Z,21.80
2022-09-22T04:06:23.177Z,21.37
2022-09-22T04:11:48.304Z,20.63
2022-09-22T04:17:10.265Z,28.73
2022-09-22T04:22:17.495Z,18.30
2022-09-22T04:27:36.880Z,20.20
2022-09-22T04:32:57.376Z,21.93
2022-09-22T04:38:14.427Z,21.67
2022-09-22T04:43:23.641Z,22.07
2022-09-22T04:48:38.716Z,19.23
2022-09-22T04:53:52.942Z,21.17
2022-09-22T04:59:01.817Z,20.70
2022-09-22T05:04:29.907Z,19.70
2022-09-22T05:09:33.423Z,19.73
2022-09-22T05:14:36.187Z,25.30
2022-09-22T05:19:43.493Z,22.83
2022-09-22T05:24:48.155Z,22.57
2022-09-22T05:29:51.091Z,24.27
2022-09-22T05:34:53.728Z,22.73
2022-09-22T05:39:56.382Z,28.50
2022-09-22T05:44:59.059Z,27.83
2022-09-22T05:50:01.861Z,24.50
2022-09-22T05:55:05.278Z,26.73
2022-09-22T06:00:09.395Z,26.10
2022-09-22T06:10:40.011Z,30.57
2022-09-22T06:15:52.686Z,36.40
2022-09-22T06:21:18.994Z,36.20
2022-09-22T06:26:33.954Z,35.30
2022-09-22T06:32:07.935Z,39.93
2022-09-22T06:37:36.007Z,35.13
2022-09-22T06:42:59.315Z,41.33
2022-09-22T06:48:20.278Z,41.40
2022-09-22T06:53:34.880Z,35.67
2022-09-22T06:59:10.838Z,36.50
2022-09-22T07:04:23.637Z,45.13
2022-09-22T07:09:59.860Z,32.60
2022-09-22T07:15:20.735Z,31.43
2022-09-22T07:20:32.416Z,34.17
2022-09-22T07:25:37.044Z,32.80
2022-09-22T07:30:40.343Z,36.03
2022-09-22T07:35:43.063Z,30.97
2022-09-22T07:46:25.207Z,31.50
2022-09-22T07:51:58.639Z,30.27
2022-09-22T07:57:19.067Z,31.37
2022-09-22T08:02:36.335Z,23.10
2022-09-22T08:07:44.926Z,22.17
2022-09-22T08:13:11.188Z,16.17
2022-09-22T08:18:33.011Z,18.20
2022-09-22T08:23:37.633Z,16.47
2022-09-22T08:29:07.856Z,19.77
2022-09-22T08:34:11.553Z,13.23
2022-09-22T08:39:23.009Z,16.90
2022-09-22T08:44:37.526Z,16.93
2022-09-22T08:50:01.326Z,11.70
2022-09-22T08:55:05.275Z,13.07
2022-09-22T09:00:19.157Z,13.17
2022-09-22T09:06:07.633Z,14.80
2022-09-22T09:12:09.357Z,11.50
2022-09-22T09:17:51.541Z,12.23
2022-09-22T09:23:02.094Z,16.60
2022-09-22T09:28:30.654Z,9.40
2022-09-22T09:34:11.561Z,9.10
2022-09-22T09:39:36.973Z,14.70
2022-09-22T09:44:40.888Z,8.00
2022-09-22T09:49:45.329Z,5.93
2022-09-22T09:54:49.229Z,9.97
2022-09-22T10:00:32.329Z,8.77
2022-09-22T10:05:52.488Z,4.87
2022-09-22T10:11:16.972Z,8.40
2022-09-22T10:17:00.989Z,4.73
2022-09-22T10:22:39.890Z,4.10
2022-09-22T10:28:23.231Z,6.30
2022-09-22T10:33:43.896Z,4.57
2022-09-22T10:39:18.564Z,3.80
2022-09-22T10:44:40.081Z,4.00
2022-09-22T10:50:13.782Z,4.13
2022-09-22T10:55:26.758Z,5.20
2022-09-22T11:00:38.275Z,1.97
2022-09-22T11:06:31.901Z,2.20
2022-09-22T11:12:32.815Z,2.43
2022-09-22T11:17:53.454Z,1.87
2022-09-22T11:23:27.046Z,2.00
2022-09-22T11:29:11.121Z,1.10
2022-09-22T11:34:30.998Z,0.97
2022-09-22T11:40:17.445Z,1.13
2022-09-22T11:45:35.140Z,1.90
2022-09-22T11:51:22.555Z,2.40
2022-09-22T11:56:55.530Z,3.17
2022-09-22T12:02:40.438Z,2.87
2022-09-22T12:08:03.267Z,1.03
2022-09-22T12:13:40.392Z,1.03
2022-09-22T12:19:00.427Z,1.00
2022-09-22T12:24:15.494Z,1.50
2022-09-22T12:29:26.601Z,2.53
2022-09-22T12:34:46.379Z,1.50
2022-09-22T12:39:50.252Z,1.03
2022-09-22T12:45:06.640Z,1.03
2022-09-22T12:50:27.251Z,2.30
2022-09-22T12:55:41.210Z,2.23
2022-09-22T13:00:43.922Z,1.60
2022-09-22T13:06:04.997Z,3.10
2022-09-22T13:11:47.157Z,1.33
2022-09-22T13:17:32.440Z,1.77
2022-09-22T13:22:54.959Z,1.47
2022-09-22T13:28:14.189Z,1.93
2022-09-22T13:33:33.380Z,1.03
2022-09-22T13:39:03.305Z,1.47
2022-09-22T13:44:19.527Z,2.03
2022-09-22T13:49:42.728Z,3.60
2022-09-22T13:54:48.800Z,2.33
2022-09-22T13:59:52.739Z,3.47
2022-09-22T14:05:07.174Z,1.77
2022-09-22T14:10:19.568Z,1.60
2022-09-22T14:15:43.876Z,0.80
2022-09-22T14:20:58.537Z,1.90
2022-09-22T14:26:51.480Z,2.20
2022-09-22T14:32:55.333Z,1.17
2022-09-22T14:38:19.432Z,1.50
2022-09-22T14:49:43.222Z,2.17
2022-09-22T14:54:46.031Z,2.30
2022-09-22T15:00:12.793Z,1.73
2022-09-22T15:05:36.193Z,3.00
2022-09-22T15:11:02.321Z,3.10
2022-09-22T15:16:56.296Z,2.63
2022-09-22T15:22:10.721Z,2.63
2022-09-22T15:27:29.273Z,3.57
2022-09-22T15:32:54.796Z,1.97
2022-09-22T15:37:57.980Z,2.50
2022-09-22T15:43:13.128Z,2.83
2022-09-22T15:48:48.692Z,1.97
2022-09-22T15:54:00.897Z,4.37
2022-09-22T15:59:11.837Z,3.73
2022-09-22T16:04:29.953Z,2.30
2022-09-22T16:09:57.091Z,3.03
2022-09-22T16:15:00.302Z,2.00
2022-09-22T16:20:03.958Z,1.57
2022-09-22T16:25:08.100Z,3.30
2022-09-22T16:30:12.800Z,2.23
2022-09-22T16:35:15.672Z,3.37
2022-09-22T16:40:20.074Z,2.93
2022-09-22T16:45:42.933Z,3.70
2022-09-22T16:50:48.109Z,3.30
2022-09-22T16:56:20.972Z,7.30
2022-09-22T17:01:24.587Z,2.47
2022-09-22T17:06:51.728Z,2.43
2022-09-22T17:12:15.444Z,4.33
2022-09-22T17:17:53.357Z,2.90
2022-09-22T17:23:05.581Z,3.13
2022-09-22T17:28:28.241Z,3.77
2022-09-22T17:34:04.226Z,2.80
2022-09-22T17:39:14.596Z,3.00
2022-09-22T17:44:22.701Z,5.43
2022-09-22T17:49:45.935Z,3.10
2022-09-22T17:55:07.066Z,5.50
2022-09-22T18:00:13.663Z,4.10
2022-09-22T18:05:20.188Z,6.00
2022-09-22T18:10:22.939Z,3.40
2022-09-22T18:15:37.460Z,2.80
2022-09-22T18:20:40.483Z,3.70
2022-09-22T18:25:43.283Z,3.93
2022-09-22T18:30:46.036Z,5.73
2022-09-22T18:41:24.035Z,5.37
2022-09-22T18:46:48.257Z,4.63
2022-09-22T18:52:13.405Z,4.40
2022-09-22T18:57:27.163Z,6.47
2022-09-22T19:03:00.871Z,4.63
2022-09-22T19:08:23.089Z,4.03
2022-09-22T19:13:29.702Z,4.80
2022-09-22T19:18:49.373Z,8.13
2022-09-22T19:24:01.161Z,6.40
2022-09-22T19:29:13.299Z,7.27
2022-09-22T19:34:17.390Z,8.67
2022-09-22T19:39:20.371Z,8.77
2022-09-22T19:44:23.851Z,10.67
2022-09-22T19:49:26.826Z,9.40
2022-09-22T19:54:29.638Z,11.67
2022-09-22T19:59:32.261Z,13.33
2022-09-22T20:04:49.772Z,13.47
2022-09-22T20:09:52.882Z,12.67
2022-09-22T20:14:55.734Z,11.97
2022-09-22T20:19:58.405Z,14.27
2022-09-22T20:25:02.145Z,11.63
2022-09-22T20:30:05.273Z,16.27
2022-09-22T20:35:10.002Z,15.63
2022-09-22T20:40:20.304Z,15.00
2022-09-22T20:45:23.279Z,16.17
2022-09-22T20:50:35.235Z,18.63
2022-09-22T20:55:38.922Z,14.57
2022-09-22T21:00:41.635Z,18.37
2022-09-22T21:06:06.646Z,16.43
2022-09-22T21:11:40.532Z,14.93
2022-09-22T21:17:04.581Z,15.03
2022-09-22T21:22:24.466Z,17.93
2022-09-22T21:27:40.547Z,17.83
2022-09-22T21:32:54.075Z,17.13
2022-09-22T21:38:06.254Z,19.10
2022-09-22T21:43:26.651Z,15.73
2022-09-22T21:48:55.522Z,15.13
2022-09-22T21:54:10.921Z,15.07
2022-09-22T21:59:21.057Z,17.30
2022-09-22T22:04:54.914Z,16.37
2022-09-22T22:10:05.539Z,17.20
2022-09-22T22:15:08.700Z,14.97
2022-09-22T22:20:11.380Z,13.80
2022-09-22T22:25:17.491Z,18.10
2022-09-22T22:30:20.163Z,17.23
2022-09-22T22:35:22.958Z,16.47
2022-09-22T22:40:28.580Z,17.80
2022-09-22T22:45:31.312Z,15.07
2022-09-22T22:50:35.754Z,16.03
2022-09-22T22:55:39.837Z,16.00
2022-09-22T23:00:42.474Z,16.10
2022-09-22T23:06:14.050Z,15.20
2022-09-22T23:11:30.630Z,20.57
2022-09-22T23:16:58.555Z,17.43
2022-09-22T23:22:13.446Z,21.33
2022-09-22T23:27:33.254Z,20.10
2022-09-22T23:32:55.969Z,18.27
2022-09-22T23:38:13.087Z,21.80
2022-09-22T23:43:29.969Z,18.97
2022-09-22T23:54:14.718Z,14.87
2022-09-22T23:59:19.794Z,15.43
